Pagrindinis puslapis
METAR-TAF:

METAR-TAF

Oro uostai :

Ki Vestas, Florida, Jungtinės Amerikos Valstijos

platuma: 24-33-13N, ilguma: 081-45-13W, Aukštis: 1 m

Dabartinis oras

Ataskaita buvo paskelbta 17 minutes, ne 23:53 UTC
Vėjas 5 kt iš Pietryčių
Temperatūra 30°C
Drėgmė 66%
Slėgis 1018 hPa
Matomumas: 16.1 km
Giedras dangus

METAR: KEYW 012353Z 13005KT 10SM CLR 30/23 A3006 RMK AO2 SLP179 T03000233 10317 20300 53004 $

Laikas: 20:10 (00:10 UTC)

Prognozė

Ataskaita buvo paskelbta 41 minutes, ne 23:29 UTC
Prognozė galioja nuo 02 metu 00 UTC su 02 metu 24 UTC
Vėjas 7 kt iš Pietų/Pietryčių
Matomumas: 10 km
Išsisklaidę debesys ne aukštis 2500 ft

TAF: KEYW 012329Z 0200/0224 16007KT P6SM SCT025

Orai ataskaitas ir orų prognozės (METAR, TAF).

turimą stotys yra geltonos ir raudonos taškus žemėlapyje.

Perkelti pele per norėdami pamatyti stoties vardą.

Tada spustelėkite, norėdami matyti oro stebėjimo ir prognozės.

Norėdami pakeisti žemėlapį: spustelėkite ant žalios mygtukų su juodo kryžiaus žemyn,; žalią mygtuką su brūkšneliu, jei norite nutolinti; arba žalių rodyklių gretimoms žemėlapius.


METAR-TAF: